Delta, CO

8:02 PM MDT on August 03, 2015 (GMT -0600)
Garnet Mesa | | Change Station
CLOSE
Current Station
Personal Weather Station
Location: Delta, CO
Elevation: 5056 ft
Nearby Weather Stations

Elev 5056 ft 38.74 °N, 108.06 °W | Updated 23 seconds ago

Clear
Clear
81.5 °F
Feels Like 80 °F
N
0.0
Wind Variable Wind from SSE
Gusts 0.0 mph

Today
High -- | Low -- °F
--% Chance of Precip.
Yesterday
High -- | Low -- °F
Precip. -- in
6:15 AM 8:21 PM
Waning Gibbous, 82% visible
Pressure 30.07 in
Visibility 5.0 miles
Clouds Clear
Heat Index 80 °F
Dew Point 50 °F
Humidity 34%
Rainfall 0.02 in
Snow Depth Not available.
UV 0.0 out of 12
Pollen 4.90 out of 12
Air Quality Not available.
Flu Activity Not available.
METAR KAJZ 040135Z AUTO 26006KT 5SM HZ CLR 30/06 A3007 RMK AO2 T02950060

More Conditions Fewer Conditions

Pressure 30.07 in
Visibility 5.0 miles
Clouds Clear
Heat Index 80 °F
Dew Point 50 °F
Humidity 34%
Rainfall 0.02 in
Snow Depth Not available.
UV 0.0 out of 12
Pollen 4.90 out of 12
Air Quality Not available.
Flu Activity Not available.
METAR KAJZ 040135Z AUTO 26006KT 5SM HZ CLR 30/06 A3007 RMK AO2 T02950060

More Conditions Fewer Conditions

10-Day Weather Forecast

×

Almanac

Astronomy

Aug. 03, 2015 Rise Set
Actual Time
Civil Twilight
Nautical Twilight
Astronomical Twilight
Moon
Length of Visible Light
Length of Day
Tomorrow will be .
, % of the Moon is Illuminated

Today's Extremes

State Highs State Lows

Community

WunderPhotos

Upload Photos

1,843,825 photos uploaded!

WunderBlogs® & News

Nearby

Air Quality

  Air Quality AQ Index Pollutant
Not available.

Snow Depth

Station Depth Elevation

Earthquake Activity

City Distance Mag. Time & Date
Minimum magnitude displayed is 2.5.

Coastal Water Temperatures

Place Temperature

Stations

Nearby Weather Stations

Station Location Temp. Windchill Dew Point Humidity Wind Precip. Elev Updated Type